KGSO/GSO METAR and TAF weather

Enter ICAO airport designator
Station Type Date Time Source
KGSO METAR 2019/08/18 08:54 UTC NOAA

KGSO 180854Z 27003KT 8SM FEW250 22/22 A3000 RMK AO2 SLP150 T02170217 58007


Station Type Date Time Source
KGSO Decoded METAR 2019/08/18 08:54 UTC NOAA

Station name not available
Aug 18, 2019 - 04:54 AM EDT / 2019.08.18 0854 UTC
Wind: from the W (270 degrees) at 3 MPH (3 KT):0
Visibility: 8 mile(s):0
Sky conditions: mostly clear
Temperature: 71.1 F (21.7 C)
Dew Point: 71.1 F (21.7 C)
Relative Humidity: 100%
Pressure (altimeter): 30 in. Hg (1015 hPa)
Pressure tendency: 0.02 inches (0.7 hPa) lower than three hours ago
ob: KGSO 180854Z 27003KT 8SM FEW250 22/22 A3000 RMK AO2 SLP150 T02170217 58007
cycle: 9

Station Type Date Time Source
KGSO TAF 2019/08/18 06:48 UTC NOAA

TAF KGSO 180545Z 1806/1906 00000KT P6SM FEW200
TEMPO 1806/1810 BKN010
FM181000 00000KT 2SM BR OVC004
FM181315 VRB02KT P6SM SCT014
FM181600 VRB03KT P6SM SCT040 SCT250
FM182300 18003KT P6SM SCT250

Example: see airport list